sensor_id;sensor_type;location;lat;lon;timestamp;temperature;humidity
59975;DHT22;62136;-35.664;-63.766;2024-02-26T00:01:11;25.50;63.30
59975;DHT22;62136;-35.664;-63.766;2024-02-26T00:03:38;25.50;63.40
59975;DHT22;62136;-35.664;-63.766;2024-02-26T00:06:08;25.40;63.20
59975;DHT22;62136;-35.664;-63.766;2024-02-26T00:08:35;25.40;63.70
59975;DHT22;62136;-35.664;-63.766;2024-02-26T00:11:02;25.40;63.30
59975;DHT22;62136;-35.664;-63.766;2024-02-26T00:13:29;25.40;63.20
59975;DHT22;62136;-35.664;-63.766;2024-02-26T00:15:56;25.40;63.80
59975;DHT22;62136;-35.664;-63.766;2024-02-26T00:18:23;25.40;63.90
59975;DHT22;62136;-35.664;-63.766;2024-02-26T00:21:31;25.40;63.50
59975;DHT22;62136;-35.664;-63.766;2024-02-26T00:24:01;25.40;64.00
59975;DHT22;62136;-35.664;-63.766;2024-02-26T00:26:28;25.40;64.10
59975;DHT22;62136;-35.664;-63.766;2024-02-26T00:28:55;25.40;63.70
59975;DHT22;62136;-35.664;-63.766;2024-02-26T00:31:22;25.40;63.90
59975;DHT22;62136;-35.664;-63.766;2024-02-26T00:33:49;25.40;64.00
59975;DHT22;62136;-35.664;-63.766;2024-02-26T00:36:16;25.40;64.10
59975;DHT22;62136;-35.664;-63.766;2024-02-26T00:38:44;25.40;64.20
59975;DHT22;62136;-35.664;-63.766;2024-02-26T00:41:17;25.40;64.10
59975;DHT22;62136;-35.664;-63.766;2024-02-26T00:43:45;25.40;64.10
59975;DHT22;62136;-35.664;-63.766;2024-02-26T00:46:14;25.40;64.40
59975;DHT22;62136;-35.664;-63.766;2024-02-26T00:48:42;25.40;64.40
59975;DHT22;62136;-35.664;-63.766;2024-02-26T00:51:12;25.40;64.20
59975;DHT22;62136;-35.664;-63.766;2024-02-26T00:53:39;25.40;64.60
59975;DHT22;62136;-35.664;-63.766;2024-02-26T00:56:07;25.40;64.20
59975;DHT22;62136;-35.664;-63.766;2024-02-26T00:59:12;25.40;64.20
59975;DHT22;62136;-35.664;-63.766;2024-02-26T01:01:41;25.30;64.40
59975;DHT22;62136;-35.664;-63.766;2024-02-26T01:04:08;25.30;64.60
59975;DHT22;62136;-35.664;-63.766;2024-02-26T01:06:35;25.40;64.20
59975;DHT22;62136;-35.664;-63.766;2024-02-26T01:09:02;25.30;64.60
59975;DHT22;62136;-35.664;-63.766;2024-02-26T01:11:29;25.30;64.00
59975;DHT22;62136;-35.664;-63.766;2024-02-26T01:13:59;25.30;64.50
59975;DHT22;62136;-35.664;-63.766;2024-02-26T01:16:27;25.30;64.40
59975;DHT22;62136;-35.664;-63.766;2024-02-26T01:18:55;25.30;64.40
59975;DHT22;62136;-35.664;-63.766;2024-02-26T01:21:22;25.30;64.40
59975;DHT22;62136;-35.664;-63.766;2024-02-26T01:23:49;25.30;64.50
59975;DHT22;62136;-35.664;-63.766;2024-02-26T01:26:16;25.30;64.60
59975;DHT22;62136;-35.664;-63.766;2024-02-26T01:28:43;25.30;64.50
59975;DHT22;62136;-35.664;-63.766;2024-02-26T01:31:10;25.30;64.70
59975;DHT22;62136;-35.664;-63.766;2024-02-26T01:33:37;25.30;65.10
59975;DHT22;62136;-35.664;-63.766;2024-02-26T01:36:04;25.30;64.60
59975;DHT22;62136;-35.664;-63.766;2024-02-26T01:38:31;25.30;64.80
59975;DHT22;62136;-35.664;-63.766;2024-02-26T01:40:58;25.30;64.90
59975;DHT22;62136;-35.664;-63.766;2024-02-26T01:43:26;25.30;64.70
59975;DHT22;62136;-35.664;-63.766;2024-02-26T01:45:54;25.20;64.90
59975;DHT22;62136;-35.664;-63.766;2024-02-26T01:48:21;25.30;65.00
59975;DHT22;62136;-35.664;-63.766;2024-02-26T01:50:50;25.20;64.70
59975;DHT22;62136;-35.664;-63.766;2024-02-26T01:53:17;25.30;64.70
59975;DHT22;62136;-35.664;-63.766;2024-02-26T01:55:46;25.20;64.70
59975;DHT22;62136;-35.664;-63.766;2024-02-26T01:58:13;25.30;64.70
59975;DHT22;62136;-35.664;-63.766;2024-02-26T02:00:41;25.20;65.10
59975;DHT22;62136;-35.664;-63.766;2024-02-26T02:05:34;25.30;65.00
59975;DHT22;62136;-35.664;-63.766;2024-02-26T02:08:09;25.20;65.00
59975;DHT22;62136;-35.664;-63.766;2024-02-26T02:10:39;25.20;65.00
59975;DHT22;62136;-35.664;-63.766;2024-02-26T02:13:07;25.20;65.00
59975;DHT22;62136;-35.664;-63.766;2024-02-26T02:15:35;25.20;65.20
59975;DHT22;62136;-35.664;-63.766;2024-02-26T02:18:02;25.20;65.10
59975;DHT22;62136;-35.664;-63.766;2024-02-26T02:20:33;25.20;65.30
59975;DHT22;62136;-35.664;-63.766;2024-02-26T02:23:01;25.20;65.30
59975;DHT22;62136;-35.664;-63.766;2024-02-26T02:25:31;25.20;65.20
59975;DHT22;62136;-35.664;-63.766;2024-02-26T02:27:58;25.20;65.20
59975;DHT22;62136;-35.664;-63.766;2024-02-26T02:30:28;25.20;65.10
59975;DHT22;62136;-35.664;-63.766;2024-02-26T02:32:56;25.20;65.40
59975;DHT22;62136;-35.664;-63.766;2024-02-26T02:35:25;25.20;65.30
59975;DHT22;62136;-35.664;-63.766;2024-02-26T02:37:57;25.20;65.60
59975;DHT22;62136;-35.664;-63.766;2024-02-26T02:40:25;25.20;65.20
59975;DHT22;62136;-35.664;-63.766;2024-02-26T02:42:52;25.20;65.60
59975;DHT22;62136;-35.664;-63.766;2024-02-26T02:45:18;25.10;65.50
59975;DHT22;62136;-35.664;-63.766;2024-02-26T02:47:45;25.20;65.40
59975;DHT22;62136;-35.664;-63.766;2024-02-26T02:50:12;25.10;65.50
59975;DHT22;62136;-35.664;-63.766;2024-02-26T02:52:40;25.10;65.90
59975;DHT22;62136;-35.664;-63.766;2024-02-26T02:55:07;25.20;66.00
59975;DHT22;62136;-35.664;-63.766;2024-02-26T02:57:34;25.10;65.70
59975;DHT22;62136;-35.664;-63.766;2024-02-26T03:00:08;25.20;65.80
59975;DHT22;62136;-35.664;-63.766;2024-02-26T03:02:35;25.10;65.70
59975;DHT22;62136;-35.664;-63.766;2024-02-26T03:05:06;25.10;65.90
59975;DHT22;62136;-35.664;-63.766;2024-02-26T03:07:33;25.10;65.80
59975;DHT22;62136;-35.664;-63.766;2024-02-26T03:10:00;25.10;65.80
59975;DHT22;62136;-35.664;-63.766;2024-02-26T03:12:27;25.10;65.90
59975;DHT22;62136;-35.664;-63.766;2024-02-26T03:14:54;25.10;66.20
59975;DHT22;62136;-35.664;-63.766;2024-02-26T03:17:21;25.10;65.70
59975;DHT22;62136;-35.664;-63.766;2024-02-26T03:19:51;25.10;66.00
59975;DHT22;62136;-35.664;-63.766;2024-02-26T03:22:20;25.10;66.30
59975;DHT22;62136;-35.664;-63.766;2024-02-26T03:24:47;25.10;66.10
59975;DHT22;62136;-35.664;-63.766;2024-02-26T03:27:16;25.10;66.10
59975;DHT22;62136;-35.664;-63.766;2024-02-26T03:29:43;25.10;66.40
59975;DHT22;62136;-35.664;-63.766;2024-02-26T03:32:10;25.10;66.20
59975;DHT22;62136;-35.664;-63.766;2024-02-26T03:34:37;25.10;66.30
59975;DHT22;62136;-35.664;-63.766;2024-02-26T03:37:06;25.10;66.40
59975;DHT22;62136;-35.664;-63.766;2024-02-26T03:39:35;25.10;66.50
59975;DHT22;62136;-35.664;-63.766;2024-02-26T03:42:02;25.10;66.40
59975;DHT22;62136;-35.664;-63.766;2024-02-26T03:44:29;25.10;66.50
59975;DHT22;62136;-35.664;-63.766;2024-02-26T03:46:56;25.10;66.50
59975;DHT22;62136;-35.664;-63.766;2024-02-26T03:49:23;25.10;66.60
59975;DHT22;62136;-35.664;-63.766;2024-02-26T03:51:50;25.10;66.60
59975;DHT22;62136;-35.664;-63.766;2024-02-26T03:54:17;25.10;66.60
59975;DHT22;62136;-35.664;-63.766;2024-02-26T03:56:45;25.10;66.70
59975;DHT22;62136;-35.664;-63.766;2024-02-26T03:59:27;25.10;66.70
59975;DHT22;62136;-35.664;-63.766;2024-02-26T04:01:57;25.10;66.90
59975;DHT22;62136;-35.664;-63.766;2024-02-26T04:04:24;25.10;66.70
59975;DHT22;62136;-35.664;-63.766;2024-02-26T04:06:51;25.10;66.70
59975;DHT22;62136;-35.664;-63.766;2024-02-26T04:09:18;25.00;66.60
59975;DHT22;62136;-35.664;-63.766;2024-02-26T04:11:45;25.10;67.00
59975;DHT22;62136;-35.664;-63.766;2024-02-26T04:14:12;25.00;67.00
59975;DHT22;62136;-35.664;-63.766;2024-02-26T04:16:39;25.10;67.20
59975;DHT22;62136;-35.664;-63.766;2024-02-26T04:19:06;25.10;67.20
59975;DHT22;62136;-35.664;-63.766;2024-02-26T04:21:34;25.10;66.90
59975;DHT22;62136;-35.664;-63.766;2024-02-26T04:24:01;25.00;67.00
59975;DHT22;62136;-35.664;-63.766;2024-02-26T04:26:29;25.10;67.20
59975;DHT22;62136;-35.664;-63.766;2024-02-26T04:28:56;25.10;67.20
59975;DHT22;62136;-35.664;-63.766;2024-02-26T04:31:24;25.00;67.30
59975;DHT22;62136;-35.664;-63.766;2024-02-26T04:33:51;25.00;66.80
59975;DHT22;62136;-35.664;-63.766;2024-02-26T04:36:18;25.00;67.30
59975;DHT22;62136;-35.664;-63.766;2024-02-26T04:38:45;25.00;67.30
59975;DHT22;62136;-35.664;-63.766;2024-02-26T04:41:12;25.00;67.50
59975;DHT22;62136;-35.664;-63.766;2024-02-26T04:43:39;25.00;67.20
59975;DHT22;62136;-35.664;-63.766;2024-02-26T04:46:08;25.00;67.50
59975;DHT22;62136;-35.664;-63.766;2024-02-26T04:48:36;25.00;67.50
59975;DHT22;62136;-35.664;-63.766;2024-02-26T04:51:04;25.00;67.60
59975;DHT22;62136;-35.664;-63.766;2024-02-26T04:53:31;25.00;67.50
59975;DHT22;62136;-35.664;-63.766;2024-02-26T04:55:58;25.00;67.80
59975;DHT22;62136;-35.664;-63.766;2024-02-26T04:58:25;25.00;67.70
59975;DHT22;62136;-35.664;-63.766;2024-02-26T05:00:52;24.90;67.60
59975;DHT22;62136;-35.664;-63.766;2024-02-26T05:03:19;25.00;67.70
59975;DHT22;62136;-35.664;-63.766;2024-02-26T05:05:46;25.00;67.80
59975;DHT22;62136;-35.664;-63.766;2024-02-26T05:08:13;24.90;67.50
59975;DHT22;62136;-35.664;-63.766;2024-02-26T05:10:40;24.90;67.80
59975;DHT22;62136;-35.664;-63.766;2024-02-26T05:13:09;25.00;68.00
59975;DHT22;62136;-35.664;-63.766;2024-02-26T05:15:36;25.00;67.90
59975;DHT22;62136;-35.664;-63.766;2024-02-26T05:18:04;24.90;68.00
59975;DHT22;62136;-35.664;-63.766;2024-02-26T05:20:31;25.00;68.00
59975;DHT22;62136;-35.664;-63.766;2024-02-26T05:23:01;24.90;67.90
59975;DHT22;62136;-35.664;-63.766;2024-02-26T05:25:30;24.90;68.10
59975;DHT22;62136;-35.664;-63.766;2024-02-26T05:27:57;25.00;68.00
59975;DHT22;62136;-35.664;-63.766;2024-02-26T05:30:24;25.00;68.20
59975;DHT22;62136;-35.664;-63.766;2024-02-26T05:32:53;25.00;68.00
59975;DHT22;62136;-35.664;-63.766;2024-02-26T05:35:20;24.90;68.10
59975;DHT22;62136;-35.664;-63.766;2024-02-26T05:37:47;24.90;68.10
59975;DHT22;62136;-35.664;-63.766;2024-02-26T05:40:14;24.90;68.20
59975;DHT22;62136;-35.664;-63.766;2024-02-26T05:42:41;24.90;68.10
59975;DHT22;62136;-35.664;-63.766;2024-02-26T05:45:10;24.90;68.30
59975;DHT22;62136;-35.664;-63.766;2024-02-26T05:47:37;24.90;68.20
59975;DHT22;62136;-35.664;-63.766;2024-02-26T05:50:12;24.90;68.30
59975;DHT22;62136;-35.664;-63.766;2024-02-26T05:52:39;24.90;68.40
59975;DHT22;62136;-35.664;-63.766;2024-02-26T05:55:07;24.90;68.40
59975;DHT22;62136;-35.664;-63.766;2024-02-26T05:57:35;24.90;68.40
59975;DHT22;62136;-35.664;-63.766;2024-02-26T06:00:02;24.90;68.50
59975;DHT22;62136;-35.664;-63.766;2024-02-26T06:02:30;24.90;68.40
59975;DHT22;62136;-35.664;-63.766;2024-02-26T06:04:58;24.90;68.50
59975;DHT22;62136;-35.664;-63.766;2024-02-26T06:07:25;24.90;68.60
59975;DHT22;62136;-35.664;-63.766;2024-02-26T06:09:52;24.90;68.50
59975;DHT22;62136;-35.664;-63.766;2024-02-26T06:12:19;24.90;68.60
59975;DHT22;62136;-35.664;-63.766;2024-02-26T06:14:46;24.90;68.70
59975;DHT22;62136;-35.664;-63.766;2024-02-26T06:17:13;24.90;68.80
59975;DHT22;62136;-35.664;-63.766;2024-02-26T06:19:40;24.80;68.70
59975;DHT22;62136;-35.664;-63.766;2024-02-26T06:22:07;24.80;68.60
59975;DHT22;62136;-35.664;-63.766;2024-02-26T06:24:34;24.80;68.70
59975;DHT22;62136;-35.664;-63.766;2024-02-26T06:27:01;24.90;68.80
59975;DHT22;62136;-35.664;-63.766;2024-02-26T06:29:28;24.90;68.90
59975;DHT22;62136;-35.664;-63.766;2024-02-26T06:31:55;24.90;69.00
59975;DHT22;62136;-35.664;-63.766;2024-02-26T06:34:22;24.90;68.80
59975;DHT22;62136;-35.664;-63.766;2024-02-26T06:36:49;24.90;69.00
59975;DHT22;62136;-35.664;-63.766;2024-02-26T06:39:16;24.80;68.90
59975;DHT22;62136;-35.664;-63.766;2024-02-26T06:41:44;24.80;68.90
59975;DHT22;62136;-35.664;-63.766;2024-02-26T06:44:14;24.90;69.10
59975;DHT22;62136;-35.664;-63.766;2024-02-26T06:46:41;24.80;69.10
59975;DHT22;62136;-35.664;-63.766;2024-02-26T06:49:07;24.80;69.10
59975;DHT22;62136;-35.664;-63.766;2024-02-26T06:51:34;24.80;69.20
59975;DHT22;62136;-35.664;-63.766;2024-02-26T06:54:01;24.80;69.10
59975;DHT22;62136;-35.664;-63.766;2024-02-26T06:56:29;24.80;69.20
59975;DHT22;62136;-35.664;-63.766;2024-02-26T06:58:56;24.80;69.30
59975;DHT22;62136;-35.664;-63.766;2024-02-26T07:01:23;24.80;69.30
59975;DHT22;62136;-35.664;-63.766;2024-02-26T07:03:50;24.80;69.40
59975;DHT22;62136;-35.664;-63.766;2024-02-26T07:06:17;24.80;69.30
59975;DHT22;62136;-35.664;-63.766;2024-02-26T07:08:43;24.80;69.60
59975;DHT22;62136;-35.664;-63.766;2024-02-26T07:11:11;24.80;69.60
59975;DHT22;62136;-35.664;-63.766;2024-02-26T07:13:38;24.80;69.70
59975;DHT22;62136;-35.664;-63.766;2024-02-26T07:16:05;24.80;69.60
59975;DHT22;62136;-35.664;-63.766;2024-02-26T07:18:32;24.80;69.60
59975;DHT22;62136;-35.664;-63.766;2024-02-26T07:21:02;24.80;69.70
59975;DHT22;62136;-35.664;-63.766;2024-02-26T07:23:31;24.80;69.80
59975;DHT22;62136;-35.664;-63.766;2024-02-26T07:25:58;24.80;69.80
59975;DHT22;62136;-35.664;-63.766;2024-02-26T07:28:25;24.80;69.90
59975;DHT22;62136;-35.664;-63.766;2024-02-26T07:30:52;24.80;69.80
59975;DHT22;62136;-35.664;-63.766;2024-02-26T07:33:19;24.70;69.80
59975;DHT22;62136;-35.664;-63.766;2024-02-26T07:35:46;24.80;69.90
59975;DHT22;62136;-35.664;-63.766;2024-02-26T07:38:13;24.70;70.00
59975;DHT22;62136;-35.664;-63.766;2024-02-26T07:40:40;24.80;70.00
59975;DHT22;62136;-35.664;-63.766;2024-02-26T07:43:07;24.70;70.00
59975;DHT22;62136;-35.664;-63.766;2024-02-26T07:45:34;24.70;70.10
59975;DHT22;62136;-35.664;-63.766;2024-02-26T07:48:03;24.80;70.20
59975;DHT22;62136;-35.664;-63.766;2024-02-26T07:50:30;24.70;70.20
59975;DHT22;62136;-35.664;-63.766;2024-02-26T07:52:56;24.70;70.20
59975;DHT22;62136;-35.664;-63.766;2024-02-26T07:55:24;24.70;70.30
59975;DHT22;62136;-35.664;-63.766;2024-02-26T07:57:52;24.70;70.30
59975;DHT22;62136;-35.664;-63.766;2024-02-26T08:00:19;24.70;70.30
59975;DHT22;62136;-35.664;-63.766;2024-02-26T08:02:47;24.70;70.20
59975;DHT22;62136;-35.664;-63.766;2024-02-26T08:05:14;24.70;70.40
59975;DHT22;62136;-35.664;-63.766;2024-02-26T08:07:40;24.70;70.50
59975;DHT22;62136;-35.664;-63.766;2024-02-26T08:10:08;24.70;70.40
59975;DHT22;62136;-35.664;-63.766;2024-02-26T08:12:35;24.70;70.60
59975;DHT22;62136;-35.664;-63.766;2024-02-26T08:15:02;24.70;70.60
59975;DHT22;62136;-35.664;-63.766;2024-02-26T08:17:29;24.70;70.60
59975;DHT22;62136;-35.664;-63.766;2024-02-26T08:19:56;24.70;70.50
59975;DHT22;62136;-35.664;-63.766;2024-02-26T08:22:23;24.70;70.70
59975;DHT22;62136;-35.664;-63.766;2024-02-26T08:24:50;24.70;70.70
59975;DHT22;62136;-35.664;-63.766;2024-02-26T08:27:17;24.70;70.60
59975;DHT22;62136;-35.664;-63.766;2024-02-26T08:29:44;24.70;70.80
59975;DHT22;62136;-35.664;-63.766;2024-02-26T08:32:11;24.70;70.80
59975;DHT22;62136;-35.664;-63.766;2024-02-26T08:34:38;24.70;70.80
59975;DHT22;62136;-35.664;-63.766;2024-02-26T08:37:06;24.70;71.00
59975;DHT22;62136;-35.664;-63.766;2024-02-26T08:39:33;24.70;71.00
59975;DHT22;62136;-35.664;-63.766;2024-02-26T08:42:00;24.70;71.00
59975;DHT22;62136;-35.664;-63.766;2024-02-26T08:44:27;24.70;71.00
59975;DHT22;62136;-35.664;-63.766;2024-02-26T08:46:54;24.70;71.00
59975;DHT22;62136;-35.664;-63.766;2024-02-26T08:49:21;24.70;71.10
59975;DHT22;62136;-35.664;-63.766;2024-02-26T08:51:49;24.70;71.20
59975;DHT22;62136;-35.664;-63.766;2024-02-26T08:54:16;24.70;71.20
59975;DHT22;62136;-35.664;-63.766;2024-02-26T08:56:43;24.70;71.10
59975;DHT22;62136;-35.664;-63.766;2024-02-26T08:59:10;24.70;71.10
59975;DHT22;62136;-35.664;-63.766;2024-02-26T09:01:37;24.70;71.30
59975;DHT22;62136;-35.664;-63.766;2024-02-26T09:04:04;24.70;71.30
59975;DHT22;62136;-35.664;-63.766;2024-02-26T09:06:31;24.70;71.30
59975;DHT22;62136;-35.664;-63.766;2024-02-26T09:08:58;24.70;71.40
59975;DHT22;62136;-35.664;-63.766;2024-02-26T09:11:25;24.60;71.40
59975;DHT22;62136;-35.664;-63.766;2024-02-26T09:13:52;24.60;71.50
59975;DHT22;62136;-35.664;-63.766;2024-02-26T09:16:19;24.70;71.60
59975;DHT22;62136;-35.664;-63.766;2024-02-26T09:18:46;24.60;71.60
59975;DHT22;62136;-35.664;-63.766;2024-02-26T09:21:13;24.60;71.50
59975;DHT22;62136;-35.664;-63.766;2024-02-26T09:23:41;24.60;71.60
59975;DHT22;62136;-35.664;-63.766;2024-02-26T09:26:08;24.60;71.70
59975;DHT22;62136;-35.664;-63.766;2024-02-26T09:28:35;24.60;71.70
59975;DHT22;62136;-35.664;-63.766;2024-02-26T09:31:05;24.60;71.70
59975;DHT22;62136;-35.664;-63.766;2024-02-26T09:33:35;24.60;71.70
59975;DHT22;62136;-35.664;-63.766;2024-02-26T09:36:03;24.60;71.70
59975;DHT22;62136;-35.664;-63.766;2024-02-26T09:38:30;24.60;71.50
59975;DHT22;62136;-35.664;-63.766;2024-02-26T09:41:04;24.60;71.90
59975;DHT22;62136;-35.664;-63.766;2024-02-26T09:43:35;24.60;71.90
59975;DHT22;62136;-35.664;-63.766;2024-02-26T09:46:03;24.60;71.90
59975;DHT22;62136;-35.664;-63.766;2024-02-26T09:48:31;24.60;71.90
59975;DHT22;62136;-35.664;-63.766;2024-02-26T09:50:59;24.60;72.00
59975;DHT22;62136;-35.664;-63.766;2024-02-26T09:53:29;24.60;72.00
59975;DHT22;62136;-35.664;-63.766;2024-02-26T09:55:58;24.60;71.90
59975;DHT22;62136;-35.664;-63.766;2024-02-26T09:58:28;24.60;72.10
59975;DHT22;62136;-35.664;-63.766;2024-02-26T10:00:57;24.60;72.10
59975;DHT22;62136;-35.664;-63.766;2024-02-26T10:03:37;24.60;72.10
59975;DHT22;62136;-35.664;-63.766;2024-02-26T10:06:07;24.60;72.10
59975;DHT22;62136;-35.664;-63.766;2024-02-26T10:08:35;24.60;72.20
59975;DHT22;62136;-35.664;-63.766;2024-02-26T10:11:06;24.60;72.20
59975;DHT22;62136;-35.664;-63.766;2024-02-26T10:13:37;24.60;72.00
59975;DHT22;62136;-35.664;-63.766;2024-02-26T10:16:05;24.60;72.30
59975;DHT22;62136;-35.664;-63.766;2024-02-26T10:18:49;24.60;72.60
59975;DHT22;62136;-35.664;-63.766;2024-02-26T10:21:22;24.60;72.60
59975;DHT22;62136;-35.664;-63.766;2024-02-26T10:23:50;24.60;72.90
59975;DHT22;62136;-35.664;-63.766;2024-02-26T10:26:17;24.60;72.30
59975;DHT22;62136;-35.664;-63.766;2024-02-26T10:28:46;24.50;73.10
59975;DHT22;62136;-35.664;-63.766;2024-02-26T10:31:14;24.50;73.20
59975;DHT22;62136;-35.664;-63.766;2024-02-26T10:33:43;24.50;73.30
59975;DHT22;62136;-35.664;-63.766;2024-02-26T10:38:38;24.60;73.50
59975;DHT22;62136;-35.664;-63.766;2024-02-26T10:41:06;24.60;73.50
59975;DHT22;62136;-35.664;-63.766;2024-02-26T10:43:39;24.50;73.70
59975;DHT22;62136;-35.664;-63.766;2024-02-26T10:46:06;24.50;74.10
59975;DHT22;62136;-35.664;-63.766;2024-02-26T10:48:34;24.50;74.00
59975;DHT22;62136;-35.664;-63.766;2024-02-26T10:51:01;24.50;74.20
59975;DHT22;62136;-35.664;-63.766;2024-02-26T10:53:29;24.50;74.40
59975;DHT22;62136;-35.664;-63.766;2024-02-26T10:56:04;24.50;74.70
59975;DHT22;62136;-35.664;-63.766;2024-02-26T10:58:32;24.50;74.30
59975;DHT22;62136;-35.664;-63.766;2024-02-26T11:01:00;24.50;74.70
59975;DHT22;62136;-35.664;-63.766;2024-02-26T11:03:28;24.40;75.30
59975;DHT22;62136;-35.664;-63.766;2024-02-26T11:05:59;24.40;75.10
59975;DHT22;62136;-35.664;-63.766;2024-02-26T11:08:27;24.30;75.40
59975;DHT22;62136;-35.664;-63.766;2024-02-26T11:10:55;24.40;75.50
59975;DHT22;62136;-35.664;-63.766;2024-02-26T11:13:26;24.30;76.00
59975;DHT22;62136;-35.664;-63.766;2024-02-26T11:15:55;24.30;76.20
59975;DHT22;62136;-35.664;-63.766;2024-02-26T11:18:24;24.30;76.10
59975;DHT22;62136;-35.664;-63.766;2024-02-26T11:20:54;24.30;75.20
59975;DHT22;62136;-35.664;-63.766;2024-02-26T11:23:24;24.20;76.10
59975;DHT22;62136;-35.664;-63.766;2024-02-26T11:25:55;24.20;76.60
59975;DHT22;62136;-35.664;-63.766;2024-02-26T11:28:25;24.10;76.70
59975;DHT22;62136;-35.664;-63.766;2024-02-26T11:30:54;24.10;76.90
59975;DHT22;62136;-35.664;-63.766;2024-02-26T11:33:21;24.10;76.80
59975;DHT22;62136;-35.664;-63.766;2024-02-26T11:35:49;24.20;76.70
59975;DHT22;62136;-35.664;-63.766;2024-02-26T11:38:26;24.20;76.90
59975;DHT22;62136;-35.664;-63.766;2024-02-26T11:40:54;24.20;77.20
59975;DHT22;62136;-35.664;-63.766;2024-02-26T11:43:53;24.20;77.40
59975;DHT22;62136;-35.664;-63.766;2024-02-26T11:46:27;24.20;77.00
59975;DHT22;62136;-35.664;-63.766;2024-02-26T11:49:29;24.20;77.00
59975;DHT22;62136;-35.664;-63.766;2024-02-26T11:51:44;24.30;76.60
59975;DHT22;62136;-35.664;-63.766;2024-02-26T11:57:38;24.30;77.50
59975;DHT22;62136;-35.664;-63.766;2024-02-26T12:00:13;24.30;77.20
59975;DHT22;62136;-35.664;-63.766;2024-02-26T12:02:46;24.30;76.70
59975;DHT22;62136;-35.664;-63.766;2024-02-26T12:05:16;24.30;77.60
59975;DHT22;62136;-35.664;-63.766;2024-02-26T12:07:47;24.40;77.60
59975;DHT22;62136;-35.664;-63.766;2024-02-26T12:10:32;24.40;77.70
59975;DHT22;62136;-35.664;-63.766;2024-02-26T12:13:11;24.40;77.30
59975;DHT22;62136;-35.664;-63.766;2024-02-26T12:15:44;24.50;77.60
59975;DHT22;62136;-35.664;-63.766;2024-02-26T12:18:16;24.50;77.30
59975;DHT22;62136;-35.664;-63.766;2024-02-26T12:20:44;24.50;77.60
59975;DHT22;62136;-35.664;-63.766;2024-02-26T12:23:15;24.50;77.70
59975;DHT22;62136;-35.664;-63.766;2024-02-26T12:25:44;24.60;77.60
59975;DHT22;62136;-35.664;-63.766;2024-02-26T12:28:20;24.60;77.60
59975;DHT22;62136;-35.664;-63.766;2024-02-26T12:30:48;24.70;77.50
59975;DHT22;62136;-35.664;-63.766;2024-02-26T12:33:17;24.70;77.30
59975;DHT22;62136;-35.664;-63.766;2024-02-26T12:35:44;24.70;77.60
59975;DHT22;62136;-35.664;-63.766;2024-02-26T12:38:17;24.70;77.40
59975;DHT22;62136;-35.664;-63.766;2024-02-26T12:40:44;24.80;76.90
59975;DHT22;62136;-35.664;-63.766;2024-02-26T12:43:12;24.80;77.50
59975;DHT22;62136;-35.664;-63.766;2024-02-26T12:45:42;24.80;77.60
59975;DHT22;62136;-35.664;-63.766;2024-02-26T12:48:14;24.80;78.40
59975;DHT22;62136;-35.664;-63.766;2024-02-26T12:50:50;24.90;78.70
59975;DHT22;62136;-35.664;-63.766;2024-02-26T12:53:18;24.90;79.90
59975;DHT22;62136;-35.664;-63.766;2024-02-26T12:55:45;24.80;79.60
59975;DHT22;62136;-35.664;-63.766;2024-02-26T12:58:13;24.80;81.10
59975;DHT22;62136;-35.664;-63.766;2024-02-26T13:00:41;24.80;78.10
59975;DHT22;62136;-35.664;-63.766;2024-02-26T13:03:09;24.80;79.30
59975;DHT22;62136;-35.664;-63.766;2024-02-26T13:05:38;24.80;78.50
59975;DHT22;62136;-35.664;-63.766;2024-02-26T13:08:06;24.80;81.00
59975;DHT22;62136;-35.664;-63.766;2024-02-26T13:10:34;24.80;75.90
59975;DHT22;62136;-35.664;-63.766;2024-02-26T13:13:03;24.80;76.00
59975;DHT22;62136;-35.664;-63.766;2024-02-26T13:15:31;24.80;78.60
59975;DHT22;62136;-35.664;-63.766;2024-02-26T13:18:13;24.80;80.70
59975;DHT22;62136;-35.664;-63.766;2024-02-26T13:20:42;24.70;76.70
59975;DHT22;62136;-35.664;-63.766;2024-02-26T13:23:12;24.80;76.30
59975;DHT22;62136;-35.664;-63.766;2024-02-26T13:25:42;24.80;75.80
59975;DHT22;62136;-35.664;-63.766;2024-02-26T13:28:17;24.80;79.50
59975;DHT22;62136;-35.664;-63.766;2024-02-26T13:30:52;24.80;76.00
59975;DHT22;62136;-35.664;-63.766;2024-02-26T13:33:20;24.80;75.70
59975;DHT22;62136;-35.664;-63.766;2024-02-26T13:35:47;24.80;72.40
59975;DHT22;62136;-35.664;-63.766;2024-02-26T13:38:16;24.70;70.40
59975;DHT22;62136;-35.664;-63.766;2024-02-26T13:40:43;24.80;75.30
59975;DHT22;62136;-35.664;-63.766;2024-02-26T13:43:10;24.80;75.80
59975;DHT22;62136;-35.664;-63.766;2024-02-26T13:45:39;24.80;73.50
59975;DHT22;62136;-35.664;-63.766;2024-02-26T13:48:08;24.80;75.50
59975;DHT22;62136;-35.664;-63.766;2024-02-26T13:50:55;24.80;67.00
59975;DHT22;62136;-35.664;-63.766;2024-02-26T13:53:29;24.80;69.60
59975;DHT22;62136;-35.664;-63.766;2024-02-26T13:55:56;24.70;66.60
59975;DHT22;62136;-35.664;-63.766;2024-02-26T13:58:25;24.80;67.90
59975;DHT22;62136;-35.664;-63.766;2024-02-26T14:00:53;24.70;66.50
59975;DHT22;62136;-35.664;-63.766;2024-02-26T14:03:21;24.70;66.20
59975;DHT22;62136;-35.664;-63.766;2024-02-26T14:05:49;24.70;65.80
59975;DHT22;62136;-35.664;-63.766;2024-02-26T14:08:16;24.70;65.10
59975;DHT22;62136;-35.664;-63.766;2024-02-26T14:10:43;24.70;67.10
59975;DHT22;62136;-35.664;-63.766;2024-02-26T14:13:12;24.70;62.60
59975;DHT22;62136;-35.664;-63.766;2024-02-26T14:15:46;24.70;66.10
59975;DHT22;62136;-35.664;-63.766;2024-02-26T14:18:13;24.70;64.50
59975;DHT22;62136;-35.664;-63.766;2024-02-26T14:20:40;24.70;64.80
59975;DHT22;62136;-35.664;-63.766;2024-02-26T14:23:07;24.70;64.40
59975;DHT22;62136;-35.664;-63.766;2024-02-26T14:25:36;24.70;63.90
59975;DHT22;62136;-35.664;-63.766;2024-02-26T14:28:04;24.70;65.20
59975;DHT22;62136;-35.664;-63.766;2024-02-26T14:30:36;24.70;65.60
59975;DHT22;62136;-35.664;-63.766;2024-02-26T14:33:04;24.80;65.00
59975;DHT22;62136;-35.664;-63.766;2024-02-26T14:35:31;24.80;66.80
59975;DHT22;62136;-35.664;-63.766;2024-02-26T14:37:58;24.80;68.90
59975;DHT22;62136;-35.664;-63.766;2024-02-26T14:40:28;24.80;61.70
59975;DHT22;62136;-35.664;-63.766;2024-02-26T14:42:59;24.80;67.90
59975;DHT22;62136;-35.664;-63.766;2024-02-26T14:45:27;24.80;62.80
59975;DHT22;62136;-35.664;-63.766;2024-02-26T14:47:55;24.80;65.70
59975;DHT22;62136;-35.664;-63.766;2024-02-26T14:50:22;24.80;61.60
59975;DHT22;62136;-35.664;-63.766;2024-02-26T14:52:49;24.80;60.50
59975;DHT22;62136;-35.664;-63.766;2024-02-26T14:55:16;24.80;64.90
59975;DHT22;62136;-35.664;-63.766;2024-02-26T14:57:43;24.90;65.40
59975;DHT22;62136;-35.664;-63.766;2024-02-26T15:00:10;24.90;63.40
59975;DHT22;62136;-35.664;-63.766;2024-02-26T15:02:37;24.90;60.80
59975;DHT22;62136;-35.664;-63.766;2024-02-26T15:05:05;24.90;63.40